sensor_id;sensor_type;location;lat;lon;timestamp;P1;durP1;ratioP1;P2;durP2;ratioP2
6093;SDS011;19964;42.060;24.700;2023-05-16T00:01:58;72.90;;;46.17;;
6093;SDS011;19964;42.060;24.700;2023-05-16T00:04:26;71.20;;;46.17;;
6093;SDS011;19964;42.060;24.700;2023-05-16T00:06:53;75.17;;;46.40;;
6093;SDS011;19964;42.060;24.700;2023-05-16T00:09:20;69.60;;;44.43;;
6093;SDS011;19964;42.060;24.700;2023-05-16T00:11:48;74.13;;;45.93;;
6093;SDS011;19964;42.060;24.700;2023-05-16T00:14:15;72.17;;;46.07;;
6093;SDS011;19964;42.060;24.700;2023-05-16T00:16:43;75.70;;;46.73;;
6093;SDS011;19964;42.060;24.700;2023-05-16T00:19:11;68.27;;;44.13;;
6093;SDS011;19964;42.060;24.700;2023-05-16T00:21:38;75.60;;;44.43;;
6093;SDS011;19964;42.060;24.700;2023-05-16T00:24:05;71.00;;;45.87;;
6093;SDS011;19964;42.060;24.700;2023-05-16T00:26:32;73.47;;;45.10;;
6093;SDS011;19964;42.060;24.700;2023-05-16T00:29:01;78.53;;;46.07;;
6093;SDS011;19964;42.060;24.700;2023-05-16T00:31:27;70.73;;;44.23;;
6093;SDS011;19964;42.060;24.700;2023-05-16T00:33:54;74.17;;;45.13;;
6093;SDS011;19964;42.060;24.700;2023-05-16T00:36:21;65.57;;;44.17;;
6093;SDS011;19964;42.060;24.700;2023-05-16T00:38:48;72.50;;;46.43;;
6093;SDS011;19964;42.060;24.700;2023-05-16T00:41:15;77.13;;;47.57;;
6093;SDS011;19964;42.060;24.700;2023-05-16T00:43:43;74.40;;;47.50;;
6093;SDS011;19964;42.060;24.700;2023-05-16T00:46:11;71.33;;;45.50;;
6093;SDS011;19964;42.060;24.700;2023-05-16T00:48:38;73.13;;;45.90;;
6093;SDS011;19964;42.060;24.700;2023-05-16T00:51:05;69.93;;;44.93;;
6093;SDS011;19964;42.060;24.700;2023-05-16T00:53:33;75.80;;;47.63;;
6093;SDS011;19964;42.060;24.700;2023-05-16T00:56:01;73.03;;;44.60;;
6093;SDS011;19964;42.060;24.700;2023-05-16T00:58:29;73.73;;;44.77;;
6093;SDS011;19964;42.060;24.700;2023-05-16T01:00:58;69.53;;;44.33;;
6093;SDS011;19964;42.060;24.700;2023-05-16T01:03:27;72.00;;;43.90;;
6093;SDS011;19964;42.060;24.700;2023-05-16T01:05:55;71.07;;;44.67;;
6093;SDS011;19964;42.060;24.700;2023-05-16T01:08:23;71.40;;;47.80;;
6093;SDS011;19964;42.060;24.700;2023-05-16T01:10:53;77.47;;;46.07;;
6093;SDS011;19964;42.060;24.700;2023-05-16T01:13:27;77.20;;;45.93;;
6093;SDS011;19964;42.060;24.700;2023-05-16T01:16:04;77.93;;;46.10;;
6093;SDS011;19964;42.060;24.700;2023-05-16T01:18:42;70.73;;;45.53;;
6093;SDS011;19964;42.060;24.700;2023-05-16T01:21:18;77.10;;;46.47;;
6093;SDS011;19964;42.060;24.700;2023-05-16T01:24:02;76.77;;;46.70;;
6093;SDS011;19964;42.060;24.700;2023-05-16T01:26:36;80.27;;;47.33;;
6093;SDS011;19964;42.060;24.700;2023-05-16T01:29:05;77.70;;;45.67;;
6093;SDS011;19964;42.060;24.700;2023-05-16T01:31:32;70.03;;;44.80;;
6093;SDS011;19964;42.060;24.700;2023-05-16T01:33:59;77.07;;;46.63;;
6093;SDS011;19964;42.060;24.700;2023-05-16T01:36:29;74.10;;;46.57;;
6093;SDS011;19964;42.060;24.700;2023-05-16T01:39:05;77.70;;;45.20;;
6093;SDS011;19964;42.060;24.700;2023-05-16T01:41:42;75.53;;;45.43;;
6093;SDS011;19964;42.060;24.700;2023-05-16T01:44:19;72.03;;;46.40;;
6093;SDS011;19964;42.060;24.700;2023-05-16T01:46:51;76.37;;;46.23;;
6093;SDS011;19964;42.060;24.700;2023-05-16T01:49:37;67.63;;;45.43;;
6093;SDS011;19964;42.060;24.700;2023-05-16T01:52:10;78.33;;;46.93;;
6093;SDS011;19964;42.060;24.700;2023-05-16T01:54:41;66.00;;;43.47;;
6093;SDS011;19964;42.060;24.700;2023-05-16T01:57:12;72.33;;;44.50;;
6093;SDS011;19964;42.060;24.700;2023-05-16T01:59:39;77.03;;;44.50;;
6093;SDS011;19964;42.060;24.700;2023-05-16T02:02:08;78.37;;;45.90;;
6093;SDS011;19964;42.060;24.700;2023-05-16T02:04:35;84.13;;;47.27;;
6093;SDS011;19964;42.060;24.700;2023-05-16T02:07:02;78.60;;;47.40;;
6093;SDS011;19964;42.060;24.700;2023-05-16T02:09:29;86.53;;;49.03;;
6093;SDS011;19964;42.060;24.700;2023-05-16T02:11:56;85.20;;;48.63;;
6093;SDS011;19964;42.060;24.700;2023-05-16T02:14:26;87.27;;;49.30;;
6093;SDS011;19964;42.060;24.700;2023-05-16T02:16:53;81.30;;;48.93;;
6093;SDS011;19964;42.060;24.700;2023-05-16T02:19:20;86.27;;;48.97;;
6093;SDS011;19964;42.060;24.700;2023-05-16T02:21:47;88.33;;;45.93;;
6093;SDS011;19964;42.060;24.700;2023-05-16T02:24:14;78.60;;;47.67;;
6093;SDS011;19964;42.060;24.700;2023-05-16T02:26:41;87.77;;;50.07;;
6093;SDS011;19964;42.060;24.700;2023-05-16T02:29:08;85.70;;;47.27;;
6093;SDS011;19964;42.060;24.700;2023-05-16T02:31:36;83.67;;;47.80;;
6093;SDS011;19964;42.060;24.700;2023-05-16T02:34:03;82.27;;;46.10;;
6093;SDS011;19964;42.060;24.700;2023-05-16T02:36:31;80.17;;;46.93;;
6093;SDS011;19964;42.060;24.700;2023-05-16T02:38:58;80.00;;;46.93;;
6093;SDS011;19964;42.060;24.700;2023-05-16T02:41:25;75.77;;;45.93;;
6093;SDS011;19964;42.060;24.700;2023-05-16T02:43:52;85.33;;;46.83;;
6093;SDS011;19964;42.060;24.700;2023-05-16T02:46:20;75.87;;;46.17;;
6093;SDS011;19964;42.060;24.700;2023-05-16T02:48:49;84.23;;;46.30;;
6093;SDS011;19964;42.060;24.700;2023-05-16T02:51:17;74.37;;;44.03;;
6093;SDS011;19964;42.060;24.700;2023-05-16T02:53:46;75.57;;;45.07;;
6093;SDS011;19964;42.060;24.700;2023-05-16T02:56:13;74.33;;;44.97;;
6093;SDS011;19964;42.060;24.700;2023-05-16T02:58:40;76.37;;;45.70;;
6093;SDS011;19964;42.060;24.700;2023-05-16T03:01:07;83.73;;;47.13;;
6093;SDS011;19964;42.060;24.700;2023-05-16T03:03:34;84.17;;;47.77;;
6093;SDS011;19964;42.060;24.700;2023-05-16T03:06:03;84.50;;;47.83;;
6093;SDS011;19964;42.060;24.700;2023-05-16T03:08:31;86.80;;;49.27;;
6093;SDS011;19964;42.060;24.700;2023-05-16T03:10:59;82.03;;;47.50;;
6093;SDS011;19964;42.060;24.700;2023-05-16T03:13:26;81.40;;;47.37;;
6093;SDS011;19964;42.060;24.700;2023-05-16T03:15:54;81.40;;;47.17;;
6093;SDS011;19964;42.060;24.700;2023-05-16T03:18:21;86.63;;;47.70;;
6093;SDS011;19964;42.060;24.700;2023-05-16T03:20:48;89.70;;;48.07;;
6093;SDS011;19964;42.060;24.700;2023-05-16T03:23:18;82.00;;;48.60;;
6093;SDS011;19964;42.060;24.700;2023-05-16T03:25:45;95.13;;;50.87;;
6093;SDS011;19964;42.060;24.700;2023-05-16T03:28:12;96.87;;;49.33;;
6093;SDS011;19964;42.060;24.700;2023-05-16T03:30:39;91.57;;;51.63;;
6093;SDS011;19964;42.060;24.700;2023-05-16T03:33:06;88.10;;;51.43;;
6093;SDS011;19964;42.060;24.700;2023-05-16T03:35:33;89.47;;;48.67;;
6093;SDS011;19964;42.060;24.700;2023-05-16T03:38:02;93.20;;;50.77;;
6093;SDS011;19964;42.060;24.700;2023-05-16T03:40:30;97.27;;;53.77;;
6093;SDS011;19964;42.060;24.700;2023-05-16T03:42:57;106.43;;;54.47;;
6093;SDS011;19964;42.060;24.700;2023-05-16T03:45:24;86.33;;;50.40;;
6093;SDS011;19964;42.060;24.700;2023-05-16T03:47:51;103.63;;;52.33;;
6093;SDS011;19964;42.060;24.700;2023-05-16T03:50:18;89.10;;;49.83;;
6093;SDS011;19964;42.060;24.700;2023-05-16T03:52:45;85.43;;;48.37;;
6093;SDS011;19964;42.060;24.700;2023-05-16T03:55:12;86.10;;;48.43;;
6093;SDS011;19964;42.060;24.700;2023-05-16T03:57:41;89.83;;;48.93;;
6093;SDS011;19964;42.060;24.700;2023-05-16T04:00:09;90.80;;;48.03;;
6093;SDS011;19964;42.060;24.700;2023-05-16T04:02:37;88.50;;;49.60;;
6093;SDS011;19964;42.060;24.700;2023-05-16T04:05:06;80.90;;;48.20;;
6093;SDS011;19964;42.060;24.700;2023-05-16T04:07:34;76.60;;;46.77;;
6093;SDS011;19964;42.060;24.700;2023-05-16T04:10:01;72.67;;;45.03;;
6093;SDS011;19964;42.060;24.700;2023-05-16T04:12:28;65.50;;;43.87;;
6093;SDS011;19964;42.060;24.700;2023-05-16T04:14:57;69.07;;;42.50;;
6093;SDS011;19964;42.060;24.700;2023-05-16T04:17:24;72.57;;;43.47;;
6093;SDS011;19964;42.060;24.700;2023-05-16T04:19:51;61.33;;;41.70;;
6093;SDS011;19964;42.060;24.700;2023-05-16T04:22:19;65.03;;;40.23;;
6093;SDS011;19964;42.060;24.700;2023-05-16T04:24:47;77.37;;;47.30;;
6093;SDS011;19964;42.060;24.700;2023-05-16T04:27:14;64.10;;;44.63;;
6093;SDS011;19964;42.060;24.700;2023-05-16T04:29:41;82.37;;;49.40;;
6093;SDS011;19964;42.060;24.700;2023-05-16T04:32:10;77.40;;;49.23;;
6093;SDS011;19964;42.060;24.700;2023-05-16T04:34:37;72.37;;;48.60;;
6093;SDS011;19964;42.060;24.700;2023-05-16T04:37:04;74.63;;;47.90;;
6093;SDS011;19964;42.060;24.700;2023-05-16T04:39:31;76.97;;;48.23;;
6093;SDS011;19964;42.060;24.700;2023-05-16T04:41:59;69.83;;;45.27;;
6093;SDS011;19964;42.060;24.700;2023-05-16T04:44:26;67.00;;;46.20;;
6093;SDS011;19964;42.060;24.700;2023-05-16T04:46:53;62.33;;;41.63;;
6093;SDS011;19964;42.060;24.700;2023-05-16T04:49:22;63.73;;;43.70;;
6093;SDS011;19964;42.060;24.700;2023-05-16T04:51:49;71.77;;;46.60;;
6093;SDS011;19964;42.060;24.700;2023-05-16T04:54:16;70.83;;;47.80;;
6093;SDS011;19964;42.060;24.700;2023-05-16T04:56:43;71.17;;;47.67;;
6093;SDS011;19964;42.060;24.700;2023-05-16T04:59:10;74.40;;;49.13;;
6093;SDS011;19964;42.060;24.700;2023-05-16T05:01:37;67.13;;;45.70;;
6093;SDS011;19964;42.060;24.700;2023-05-16T05:04:04;68.33;;;46.57;;
6093;SDS011;19964;42.060;24.700;2023-05-16T05:06:33;59.60;;;40.73;;
6093;SDS011;19964;42.060;24.700;2023-05-16T05:09:00;62.13;;;43.30;;
6093;SDS011;19964;42.060;24.700;2023-05-16T05:11:27;69.13;;;45.87;;
6093;SDS011;19964;42.060;24.700;2023-05-16T05:13:54;65.13;;;44.37;;
6093;SDS011;19964;42.060;24.700;2023-05-16T05:16:21;67.93;;;45.40;;
6093;SDS011;19964;42.060;24.700;2023-05-16T05:18:48;69.30;;;47.77;;
6093;SDS011;19964;42.060;24.700;2023-05-16T05:21:15;69.27;;;45.93;;
6093;SDS011;19964;42.060;24.700;2023-05-16T05:23:43;70.67;;;46.50;;
6093;SDS011;19964;42.060;24.700;2023-05-16T05:26:11;71.70;;;45.90;;
6093;SDS011;19964;42.060;24.700;2023-05-16T05:28:38;67.70;;;45.37;;
6093;SDS011;19964;42.060;24.700;2023-05-16T05:31:05;64.10;;;45.47;;
6093;SDS011;19964;42.060;24.700;2023-05-16T05:33:32;65.90;;;46.60;;
6093;SDS011;19964;42.060;24.700;2023-05-16T05:35:59;69.83;;;47.30;;
6093;SDS011;19964;42.060;24.700;2023-05-16T05:38:26;68.93;;;45.13;;
6093;SDS011;19964;42.060;24.700;2023-05-16T05:40:54;69.33;;;46.40;;
6093;SDS011;19964;42.060;24.700;2023-05-16T05:43:21;67.53;;;45.70;;
6093;SDS011;19964;42.060;24.700;2023-05-16T05:45:48;74.67;;;47.57;;
6093;SDS011;19964;42.060;24.700;2023-05-16T05:48:15;68.20;;;43.90;;
6093;SDS011;19964;42.060;24.700;2023-05-16T05:50:42;70.47;;;44.50;;
6093;SDS011;19964;42.060;24.700;2023-05-16T05:53:09;68.40;;;45.27;;
6093;SDS011;19964;42.060;24.700;2023-05-16T05:55:36;73.10;;;48.27;;
6093;SDS011;19964;42.060;24.700;2023-05-16T05:58:07;74.40;;;48.57;;
6093;SDS011;19964;42.060;24.700;2023-05-16T06:00:34;79.17;;;49.13;;
6093;SDS011;19964;42.060;24.700;2023-05-16T06:03:01;78.67;;;49.10;;
6093;SDS011;19964;42.060;24.700;2023-05-16T06:05:28;76.70;;;49.57;;
6093;SDS011;19964;42.060;24.700;2023-05-16T06:07:55;79.67;;;48.07;;
6093;SDS011;19964;42.060;24.700;2023-05-16T06:10:22;76.87;;;48.57;;
6093;SDS011;19964;42.060;24.700;2023-05-16T06:12:49;74.33;;;48.30;;
6093;SDS011;19964;42.060;24.700;2023-05-16T06:15:18;76.07;;;51.07;;
6093;SDS011;19964;42.060;24.700;2023-05-16T06:17:45;81.37;;;50.33;;
6093;SDS011;19964;42.060;24.700;2023-05-16T06:20:12;70.47;;;47.80;;
6093;SDS011;19964;42.060;24.700;2023-05-16T06:22:39;78.77;;;49.20;;
6093;SDS011;19964;42.060;24.700;2023-05-16T06:25:06;71.37;;;47.47;;
6093;SDS011;19964;42.060;24.700;2023-05-16T06:27:33;73.00;;;47.63;;
6093;SDS011;19964;42.060;24.700;2023-05-16T06:30:00;78.50;;;49.40;;
6093;SDS011;19964;42.060;24.700;2023-05-16T06:32:29;77.70;;;49.80;;
6093;SDS011;19964;42.060;24.700;2023-05-16T06:34:55;76.03;;;50.17;;
6093;SDS011;19964;42.060;24.700;2023-05-16T06:37:22;76.43;;;50.73;;
6093;SDS011;19964;42.060;24.700;2023-05-16T06:39:50;77.83;;;51.53;;
6093;SDS011;19964;42.060;24.700;2023-05-16T06:42:17;72.33;;;48.43;;
6093;SDS011;19964;42.060;24.700;2023-05-16T06:44:44;74.17;;;50.03;;
6093;SDS011;19964;42.060;24.700;2023-05-16T06:47:11;72.40;;;49.10;;
6093;SDS011;19964;42.060;24.700;2023-05-16T06:49:40;80.60;;;51.57;;
6093;SDS011;19964;42.060;24.700;2023-05-16T06:52:07;77.57;;;49.07;;
6093;SDS011;19964;42.060;24.700;2023-05-16T06:54:34;74.50;;;49.63;;
6093;SDS011;19964;42.060;24.700;2023-05-16T06:57:01;72.83;;;47.53;;
6093;SDS011;19964;42.060;24.700;2023-05-16T06:59:28;71.97;;;45.67;;
6093;SDS011;19964;42.060;24.700;2023-05-16T07:01:55;50.30;;;32.20;;
6093;SDS011;19964;42.060;24.700;2023-05-16T07:04:22;22.20;;;17.70;;
6093;SDS011;19964;42.060;24.700;2023-05-16T07:06:50;19.47;;;15.43;;
6093;SDS011;19964;42.060;24.700;2023-05-16T07:09:17;17.27;;;14.60;;
6093;SDS011;19964;42.060;24.700;2023-05-16T07:11:44;16.90;;;14.73;;
6093;SDS011;19964;42.060;24.700;2023-05-16T07:14:11;15.93;;;14.33;;
6093;SDS011;19964;42.060;24.700;2023-05-16T07:16:37;18.03;;;16.13;;
6093;SDS011;19964;42.060;24.700;2023-05-16T07:19:04;20.23;;;16.20;;
6093;SDS011;19964;42.060;24.700;2023-05-16T07:21:32;22.13;;;17.03;;
6093;SDS011;19964;42.060;24.700;2023-05-16T07:24:00;18.23;;;16.33;;
6093;SDS011;19964;42.060;24.700;2023-05-16T07:26:27;27.20;;;18.07;;
6093;SDS011;19964;42.060;24.700;2023-05-16T07:28:54;21.53;;;19.27;;
6093;SDS011;19964;42.060;24.700;2023-05-16T07:31:21;29.10;;;20.27;;
6093;SDS011;19964;42.060;24.700;2023-05-16T07:33:48;19.53;;;17.13;;
6093;SDS011;19964;42.060;24.700;2023-05-16T07:36:15;20.30;;;17.20;;
6093;SDS011;19964;42.060;24.700;2023-05-16T07:38:42;27.00;;;18.40;;
6093;SDS011;19964;42.060;24.700;2023-05-16T07:41:10;26.97;;;19.87;;
6093;SDS011;19964;42.060;24.700;2023-05-16T07:43:37;22.10;;;19.70;;
6093;SDS011;19964;42.060;24.700;2023-05-16T07:46:04;27.70;;;21.23;;
6093;SDS011;19964;42.060;24.700;2023-05-16T07:48:31;28.40;;;21.63;;
6093;SDS011;19964;42.060;24.700;2023-05-16T07:50:58;25.37;;;22.43;;
6093;SDS011;19964;42.060;24.700;2023-05-16T07:53:25;27.67;;;22.97;;
6093;SDS011;19964;42.060;24.700;2023-05-16T07:55:52;25.27;;;22.77;;
6093;SDS011;19964;42.060;24.700;2023-05-16T07:58:21;26.80;;;22.57;;
6093;SDS011;19964;42.060;24.700;2023-05-16T08:00:48;28.00;;;23.37;;
6093;SDS011;19964;42.060;24.700;2023-05-16T08:03:16;30.03;;;22.13;;
6093;SDS011;19964;42.060;24.700;2023-05-16T08:05:42;25.17;;;22.37;;
6093;SDS011;19964;42.060;24.700;2023-05-16T08:08:09;30.87;;;22.27;;
6093;SDS011;19964;42.060;24.700;2023-05-16T08:10:36;26.07;;;22.40;;
6093;SDS011;19964;42.060;24.700;2023-05-16T08:13:03;31.00;;;21.63;;
6093;SDS011;19964;42.060;24.700;2023-05-16T08:15:32;28.10;;;22.40;;
6093;SDS011;19964;42.060;24.700;2023-05-16T08:17:59;29.90;;;23.33;;
6093;SDS011;19964;42.060;24.700;2023-05-16T08:20:26;25.50;;;22.80;;
6093;SDS011;19964;42.060;24.700;2023-05-16T08:22:53;27.27;;;24.10;;
6093;SDS011;19964;42.060;24.700;2023-05-16T08:25:20;27.67;;;23.37;;
6093;SDS011;19964;42.060;24.700;2023-05-16T08:27:48;27.77;;;22.53;;
6093;SDS011;19964;42.060;24.700;2023-05-16T08:30:15;25.47;;;22.43;;
6093;SDS011;19964;42.060;24.700;2023-05-16T08:32:44;28.20;;;24.27;;
6093;SDS011;19964;42.060;24.700;2023-05-16T08:35:11;31.77;;;25.60;;
6093;SDS011;19964;42.060;24.700;2023-05-16T08:37:38;35.63;;;25.63;;
6093;SDS011;19964;42.060;24.700;2023-05-16T08:40:06;34.57;;;26.70;;
6093;SDS011;19964;42.060;24.700;2023-05-16T08:42:35;32.23;;;26.63;;
6093;SDS011;19964;42.060;24.700;2023-05-16T08:45:03;32.77;;;26.47;;
6093;SDS011;19964;42.060;24.700;2023-05-16T08:47:31;36.10;;;28.30;;
6093;SDS011;19964;42.060;24.700;2023-05-16T08:50:03;35.93;;;27.77;;
6093;SDS011;19964;42.060;24.700;2023-05-16T08:52:30;32.00;;;28.07;;
6093;SDS011;19964;42.060;24.700;2023-05-16T08:55:00;33.50;;;28.23;;
6093;SDS011;19964;42.060;24.700;2023-05-16T08:57:32;33.47;;;27.90;;
6093;SDS011;19964;42.060;24.700;2023-05-16T08:59:59;38.30;;;28.97;;
6093;SDS011;19964;42.060;24.700;2023-05-16T09:02:31;37.27;;;31.43;;
6093;SDS011;19964;42.060;24.700;2023-05-16T09:04:58;36.33;;;29.93;;
6093;SDS011;19964;42.060;24.700;2023-05-16T09:07:27;35.83;;;29.87;;
6093;SDS011;19964;42.060;24.700;2023-05-16T09:09:54;33.77;;;30.10;;
6093;SDS011;19964;42.060;24.700;2023-05-16T09:12:21;35.93;;;29.30;;
6093;SDS011;19964;42.060;24.700;2023-05-16T09:14:48;33.13;;;29.43;;
6093;SDS011;19964;42.060;24.700;2023-05-16T09:17:16;33.23;;;29.23;;
6093;SDS011;19964;42.060;24.700;2023-05-16T09:19:43;33.27;;;27.60;;
6093;SDS011;19964;42.060;24.700;2023-05-16T09:22:13;30.80;;;27.70;;
6093;SDS011;19964;42.060;24.700;2023-05-16T09:24:42;33.37;;;29.77;;
6093;SDS011;19964;42.060;24.700;2023-05-16T09:27:11;38.20;;;28.57;;
6093;SDS011;19964;42.060;24.700;2023-05-16T09:29:39;33.10;;;29.50;;
6093;SDS011;19964;42.060;24.700;2023-05-16T09:32:11;37.47;;;29.30;;
6093;SDS011;19964;42.060;24.700;2023-05-16T09:34:41;35.10;;;29.17;;
6093;SDS011;19964;42.060;24.700;2023-05-16T09:37:09;34.80;;;29.03;;
6093;SDS011;19964;42.060;24.700;2023-05-16T09:39:38;31.53;;;27.67;;
6093;SDS011;19964;42.060;24.700;2023-05-16T09:42:10;29.50;;;25.73;;
6093;SDS011;19964;42.060;24.700;2023-05-16T09:44:37;31.00;;;26.13;;
6093;SDS011;19964;42.060;24.700;2023-05-16T09:47:05;27.37;;;24.33;;
6093;SDS011;19964;42.060;24.700;2023-05-16T09:49:32;29.57;;;26.10;;
6093;SDS011;19964;42.060;24.700;2023-05-16T09:52:02;29.40;;;26.20;;
6093;SDS011;19964;42.060;24.700;2023-05-16T09:54:29;27.87;;;24.87;;
6093;SDS011;19964;42.060;24.700;2023-05-16T09:56:58;28.07;;;25.10;;
6093;SDS011;19964;42.060;24.700;2023-05-16T09:59:28;29.30;;;26.03;;
6093;SDS011;19964;42.060;24.700;2023-05-16T10:01:56;27.97;;;25.07;;
6093;SDS011;19964;42.060;24.700;2023-05-16T10:04:24;33.03;;;28.40;;
6093;SDS011;19964;42.060;24.700;2023-05-16T10:06:52;30.47;;;27.17;;
6093;SDS011;19964;42.060;24.700;2023-05-16T10:09:22;32.67;;;29.23;;
6093;SDS011;19964;42.060;24.700;2023-05-16T10:11:50;33.80;;;29.53;;
6093;SDS011;19964;42.060;24.700;2023-05-16T10:14:17;29.90;;;26.90;;
6093;SDS011;19964;42.060;24.700;2023-05-16T10:16:47;29.63;;;26.60;;
6093;SDS011;19964;42.060;24.700;2023-05-16T10:19:16;32.30;;;28.97;;
6093;SDS011;19964;42.060;24.700;2023-05-16T10:21:47;36.03;;;29.17;;
6093;SDS011;19964;42.060;24.700;2023-05-16T10:24:20;34.10;;;29.03;;
6093;SDS011;19964;42.060;24.700;2023-05-16T10:26:51;34.50;;;30.97;;
6093;SDS011;19964;42.060;24.700;2023-05-16T10:29:19;34.60;;;31.00;;
6093;SDS011;19964;42.060;24.700;2023-05-16T10:31:48;32.57;;;28.87;;
6093;SDS011;19964;42.060;24.700;2023-05-16T10:34:15;33.43;;;28.97;;
6093;SDS011;19964;42.060;24.700;2023-05-16T10:36:43;33.47;;;27.27;;
6093;SDS011;19964;42.060;24.700;2023-05-16T10:39:12;34.53;;;28.93;;
6093;SDS011;19964;42.060;24.700;2023-05-16T10:41:40;38.43;;;30.47;;
6093;SDS011;19964;42.060;24.700;2023-05-16T10:44:11;33.20;;;25.97;;
6093;SDS011;19964;42.060;24.700;2023-05-16T10:46:40;31.07;;;27.83;;
6093;SDS011;19964;42.060;24.700;2023-05-16T10:49:21;29.83;;;26.57;;
6093;SDS011;19964;42.060;24.700;2023-05-16T10:52:01;34.17;;;28.40;;
6093;SDS011;19964;42.060;24.700;2023-05-16T10:54:34;34.43;;;26.97;;
6093;SDS011;19964;42.060;24.700;2023-05-16T10:57:06;30.50;;;26.33;;
6093;SDS011;19964;42.060;24.700;2023-05-16T10:59:41;32.60;;;29.20;;
6093;SDS011;19964;42.060;24.700;2023-05-16T11:02:23;32.57;;;29.00;;
6093;SDS011;19964;42.060;24.700;2023-05-16T11:04:53;34.00;;;29.33;;
6093;SDS011;19964;42.060;24.700;2023-05-16T11:07:24;31.87;;;28.40;;
6093;SDS011;19964;42.060;24.700;2023-05-16T11:10:04;31.93;;;28.53;;
6093;SDS011;19964;42.060;24.700;2023-05-16T11:12:36;35.47;;;29.27;;
6093;SDS011;19964;42.060;24.700;2023-05-16T11:15:20;31.87;;;28.27;;
6093;SDS011;19964;42.060;24.700;2023-05-16T11:17:50;32.17;;;28.70;;
6093;SDS011;19964;42.060;24.700;2023-05-16T11:20:31;32.03;;;28.73;;
6093;SDS011;19964;42.060;24.700;2023-05-16T11:25:48;33.87;;;29.90;;
6093;SDS011;19964;42.060;24.700;2023-05-16T11:28:19;31.10;;;27.20;;
6093;SDS011;19964;42.060;24.700;2023-05-16T11:30:47;26.33;;;23.63;;
6093;SDS011;19964;42.060;24.700;2023-05-16T11:33:16;31.77;;;24.73;;
6093;SDS011;19964;42.060;24.700;2023-05-16T11:35:44;23.40;;;21.00;;
6093;SDS011;19964;42.060;24.700;2023-05-16T11:38:28;25.13;;;20.40;;
6093;SDS011;19964;42.060;24.700;2023-05-16T11:41:00;23.53;;;21.13;;
6093;SDS011;19964;42.060;24.700;2023-05-16T11:43:28;27.93;;;21.20;;
6093;SDS011;19964;42.060;24.700;2023-05-16T11:45:55;24.17;;;21.13;;
6093;SDS011;19964;42.060;24.700;2023-05-16T11:48:23;25.20;;;22.50;;
6093;SDS011;19964;42.060;24.700;2023-05-16T11:50:52;27.07;;;21.10;;
6093;SDS011;19964;42.060;24.700;2023-05-16T11:53:19;25.80;;;23.20;;
6093;SDS011;19964;42.060;24.700;2023-05-16T11:55:50;26.33;;;23.03;;
6093;SDS011;19964;42.060;24.700;2023-05-16T11:58:17;24.60;;;21.97;;
6093;SDS011;19964;42.060;24.700;2023-05-16T12:00:48;22.20;;;19.80;;
6093;SDS011;19964;42.060;24.700;2023-05-16T12:03:16;25.20;;;20.70;;
6093;SDS011;19964;42.060;24.700;2023-05-16T12:05:53;22.27;;;19.87;;
6093;SDS011;19964;42.060;24.700;2023-05-16T12:08:22;27.20;;;18.83;;
6093;SDS011;19964;42.060;24.700;2023-05-16T12:10:49;23.20;;;19.93;;
6093;SDS011;19964;42.060;24.700;2023-05-16T12:13:17;21.23;;;18.97;;
6093;SDS011;19964;42.060;24.700;2023-05-16T12:15:46;22.57;;;18.90;;
6093;SDS011;19964;42.060;24.700;2023-05-16T12:18:13;21.43;;;19.20;;
6093;SDS011;19964;42.060;24.700;2023-05-16T12:20:41;20.60;;;18.47;;
6093;SDS011;19964;42.060;24.700;2023-05-16T12:23:13;20.93;;;18.83;;
6093;SDS011;19964;42.060;24.700;2023-05-16T12:25:43;19.83;;;17.70;;
6093;SDS011;19964;42.060;24.700;2023-05-16T12:28:14;20.90;;;17.50;;
6093;SDS011;19964;42.060;24.700;2023-05-16T12:30:42;21.53;;;19.37;;
6093;SDS011;19964;42.060;24.700;2023-05-16T12:33:12;22.97;;;19.87;;
6093;SDS011;19964;42.060;24.700;2023-05-16T12:35:40;26.93;;;24.00;;
6093;SDS011;19964;42.060;24.700;2023-05-16T12:38:10;34.37;;;27.63;;
6093;SDS011;19964;42.060;24.700;2023-05-16T12:40:40;37.67;;;27.70;;
6093;SDS011;19964;42.060;24.700;2023-05-16T12:43:11;36.37;;;28.60;;
6093;SDS011;19964;42.060;24.700;2023-05-16T12:45:39;33.30;;;28.03;;
6093;SDS011;19964;42.060;24.700;2023-05-16T12:48:10;30.77;;;27.50;;
6093;SDS011;19964;42.060;24.700;2023-05-16T12:50:38;32.20;;;27.70;;
6093;SDS011;19964;42.060;24.700;2023-05-16T12:53:09;35.73;;;30.00;;
6093;SDS011;19964;42.060;24.700;2023-05-16T12:55:37;35.43;;;28.50;;
6093;SDS011;19964;42.060;24.700;2023-05-16T12:58:06;35.30;;;27.00;;
6093;SDS011;19964;42.060;24.700;2023-05-16T13:00:33;32.80;;;28.90;;
6093;SDS011;19964;42.060;24.700;2023-05-16T13:03:01;39.23;;;29.10;;
6093;SDS011;19964;42.060;24.700;2023-05-16T13:05:28;36.93;;;27.80;;
6093;SDS011;19964;42.060;24.700;2023-05-16T13:07:55;35.87;;;28.57;;
6093;SDS011;19964;42.060;24.700;2023-05-16T13:10:22;32.67;;;26.80;;
6093;SDS011;19964;42.060;24.700;2023-05-16T13:12:50;35.87;;;25.90;;
6093;SDS011;19964;42.060;24.700;2023-05-16T13:15:19;33.93;;;26.77;;
6093;SDS011;19964;42.060;24.700;2023-05-16T13:17:46;27.47;;;24.40;;
6093;SDS011;19964;42.060;24.700;2023-05-16T13:20:13;34.27;;;27.47;;
6093;SDS011;19964;42.060;24.700;2023-05-16T13:22:40;30.30;;;26.53;;
6093;SDS011;19964;42.060;24.700;2023-05-16T13:25:07;35.90;;;27.20;;
6093;SDS011;19964;42.060;24.700;2023-05-16T13:27:35;31.27;;;27.33;;
6093;SDS011;19964;42.060;24.700;2023-05-16T13:30:03;36.17;;;28.47;;
6093;SDS011;19964;42.060;24.700;2023-05-16T13:32:32;29.17;;;25.97;;
6093;SDS011;19964;42.060;24.700;2023-05-16T13:34:59;37.27;;;28.60;;
6093;SDS011;19964;42.060;24.700;2023-05-16T13:37:28;30.70;;;27.00;;
6093;SDS011;19964;42.060;24.700;2023-05-16T13:39:54;33.73;;;26.20;;
6093;SDS011;19964;42.060;24.700;2023-05-16T13:42:21;21.50;;;19.27;;
6093;SDS011;19964;42.060;24.700;2023-05-16T13:44:48;27.13;;;20.03;;
6093;SDS011;19964;42.060;24.700;2023-05-16T13:47:15;20.43;;;18.40;;
6093;SDS011;19964;42.060;24.700;2023-05-16T13:49:43;33.50;;;18.47;;
6093;SDS011;19964;42.060;24.700;2023-05-16T13:52:10;21.70;;;18.00;;
6093;SDS011;19964;42.060;24.700;2023-05-16T13:54:37;19.50;;;16.43;;
6093;SDS011;19964;42.060;24.700;2023-05-16T13:57:04;22.50;;;17.40;;
6093;SDS011;19964;42.060;24.700;2023-05-16T13:59:31;19.10;;;17.33;;
6093;SDS011;19964;42.060;24.700;2023-05-16T14:01:58;18.43;;;16.57;;
6093;SDS011;19964;42.060;24.700;2023-05-16T14:04:25;20.97;;;18.77;;
6093;SDS011;19964;42.060;24.700;2023-05-16T14:06:53;20.47;;;18.03;;
6093;SDS011;19964;42.060;24.700;2023-05-16T14:09:20;19.77;;;17.50;;
6093;SDS011;19964;42.060;24.700;2023-05-16T14:11:47;19.47;;;17.20;;
6093;SDS011;19964;42.060;24.700;2023-05-16T14:14:14;18.50;;;16.60;;
6093;SDS011;19964;42.060;24.700;2023-05-16T14:16:40;25.73;;;17.40;;
6093;SDS011;19964;42.060;24.700;2023-05-16T14:19:10;24.10;;;16.87;;
6093;SDS011;19964;42.060;24.700;2023-05-16T14:21:37;19.67;;;17.60;;
6093;SDS011;19964;42.060;24.700;2023-05-16T14:24:06;23.63;;;17.10;;
6093;SDS011;19964;42.060;24.700;2023-05-16T14:26:33;19.00;;;17.10;;
6093;SDS011;19964;42.060;24.700;2023-05-16T14:28:59;20.07;;;17.43;;
6093;SDS011;19964;42.060;24.700;2023-05-16T14:31:26;20.07;;;18.03;;